Česky Dansk Deutsch English Español Suomi Français Magyar Italiano Nederlands norsk Polski Português svenska Türkçe

 

Het Weer

Balikesir (Turkije)

03:50, 20 augustus 2016 (GMT)

NWNNE
WE
SWSSE
Home            
Balikesir Bandirma Akhisar Bursa Mytilini Airport Canakkale Izmir \ Kaklic Izmir / Cigli Bursa / Yenisehir, Mil-Civ Izmir / Adnan Menderes Usak Istanbul / Ataturk Corlu Istanbul / Sabiha Gokcen Aydin Chios Airport Alexandroupoli Airport Topel Tur-Afb Eskisehir Samos Airport Limnos Airport Afyon Cardak

Om een weerknop op uw website of weblog te plaatsen, copieer onderstaande code en plak die in uw pagina. In het eerste vakje staat HTML-code, in het tweede vakje UBB-code.


Add to Google

Details

Visibility:Greater than 10000 m, 10 km, 32800 ft, 6.2 miles
Clouds:Ein wenig bewölkt at 3500 ft, 1067 m
Aufgelockert bewölkt at 10000 ft, 3048 m
Temperature:22°C, 72°F
Gefühlte Temperatur:21°C, 70°F
Dew-point:20°C, 68°F
Atmospheric pressure:1011 hPa, 758.3 mmHg, 29.85 inHg, 0.998 atm
Relative humidity:88.4 %
METAR:LTBF 200350Z 00000KT 9999 FEW035 SCT100 22/20 Q1011 NOSIG

Snelkoppelingen

Actuele weersinformatie van de hele wereld. Voeg locaties toe met het plus (+) symbool. Deze snelkoppelingen kunnen worden toegevoegd aan Google.

Lid van de Technetium groep

website free tracking
StatCounter NetStat W3C Validator

18-08-2022 10:08:33
astro.technetium.be money.technetium.be phote.technetium.be tafeltennistafel.technetium.be www.ligfiets.net